Time;durP1;ratioP1;P1;durP2;ratioP2;P2;SDS_P1;SDS_P2;PMS_P1;PMS_P2;Temp;Humidity;BMP_temperature;BMP_pressure;BME280_temperature;BME280_humidity;BME280_pressure;Samples;Min_cycle;Max_cycle;Signal;HPM_P1;HPM_P2
2024/01/20 00:01:21;;;;;;;28.38;19.35;;;0.30;99.90;;;;;;5080301;28;20100;-73
2024/01/20 00:03:46;;;;;;;23.60;19.00;;;0.20;99.90;;;;;;5079742;28;20055;-73
2024/01/20 00:06:12;;;;;;;26.55;19.90;;;0.20;99.90;;;;;;5055717;27;20088;-73
2024/01/20 00:08:38;;;;;;;30.15;20.63;;;0.20;99.90;;;;;;5100014;27;20117;-73
2024/01/20 00:11:04;;;;;;;28.13;19.58;;;0.10;99.90;;;;;;5117316;27;20043;-73
2024/01/20 00:13:30;;;;;;;24.67;17.88;;;0.20;99.90;;;;;;5099862;27;20031;-73
2024/01/20 00:15:56;;;;;;;31.80;20.52;;;0.20;99.90;;;;;;5099721;27;20039;-73
2024/01/20 00:18:22;;;;;;;26.95;20.58;;;0.20;99.90;;;;;;5117023;27;20121;-73
2024/01/20 00:20:47;;;;;;;26.63;20.80;;;0.10;99.90;;;;;;5116708;27;20045;-73
2024/01/20 00:23:13;;;;;;;26.08;20.52;;;0.10;99.90;;;;;;5116844;27;20514;-73
2024/01/20 00:25:42;;;;;;;27.85;19.70;;;0.10;99.90;;;;;;5099897;27;20463;-73
2024/01/20 00:28:08;;;;;;;34.38;21.88;;;0.10;99.90;;;;;;5116463;27;20032;-73
2024/01/20 00:30:34;;;;;;;27.23;20.90;;;0.10;99.90;;;;;;5116473;27;20039;-73
2024/01/20 00:33:02;;;;;;;29.08;20.65;;;0.10;99.90;;;;;;5099010;27;20042;-72
2024/01/20 00:35:27;;;;;;;30.02;20.00;;;0.20;99.90;;;;;;5116245;27;20035;-73
2024/01/20 00:37:53;;;;;;;31.73;21.20;;;0.20;99.90;;;;;;5099492;27;20061;-73
2024/01/20 00:40:19;;;;;;;31.17;20.63;;;0.20;99.90;;;;;;5099713;27;20039;-73
2024/01/20 00:42:45;;;;;;;33.65;22.83;;;0.20;99.90;;;;;;5116252;27;20035;-73
2024/01/20 00:45:11;;;;;;;32.47;23.40;;;0.20;99.90;;;;;;5116272;27;20038;-73
2024/01/20 00:47:37;;;;;;;33.83;22.60;;;0.20;99.90;;;;;;5099036;27;20054;-73
2024/01/20 00:50:04;;;;;;;28.35;18.83;;;0.10;99.90;;;;;;5099198;27;20031;-73
2024/01/20 00:52:31;;;;;;;28.35;22.33;;;0.10;99.90;;;;;;5116440;27;20476;-73
2024/01/20 00:54:56;;;;;;;32.05;22.70;;;0.10;99.90;;;;;;5116346;27;20111;-73
2024/01/20 00:57:22;;;;;;;32.85;23.60;;;0.10;99.90;;;;;;5116300;27;20039;-73
2024/01/20 00:59:48;;;;;;;31.15;20.85;;;0.10;99.90;;;;;;5116110;27;20064;-73
2024/01/20 01:02:16;;;;;;;34.28;24.30;;;0.20;99.90;;;;;;5079558;27;20043;-73
2024/01/20 01:04:42;;;;;;;32.45;23.65;;;0.10;99.90;;;;;;5078640;28;20040;-73
2024/01/20 01:07:08;;;;;;;32.42;21.52;;;0.20;99.90;;;;;;5062202;28;20036;-73
2024/01/20 01:09:35;;;;;;;32.63;21.00;;;0.10;99.90;;;;;;5095966;28;20032;-75
2024/01/20 01:12:01;;;;;;;33.67;22.77;;;0.10;99.90;;;;;;5078706;28;20074;-75
2024/01/20 01:14:27;;;;;;;31.52;24.55;;;0.10;99.90;;;;;;5079009;28;20079;-75
2024/01/20 01:16:53;;;;;;;34.97;22.70;;;0.10;99.90;;;;;;5095305;28;20039;-75
2024/01/20 01:19:19;;;;;;;34.03;24.25;;;0.10;99.90;;;;;;5062158;28;20032;-75
2024/01/20 01:21:45;;;;;;;30.75;21.85;;;0.00;99.90;;;;;;5078344;28;20036;-75
2024/01/20 01:24:11;;;;;;;30.42;23.83;;;0.00;99.90;;;;;;5061668;28;20040;-75
2024/01/20 01:26:37;;;;;;;32.72;24.42;;;0.00;99.90;;;;;;5061643;28;20043;-75
2024/01/20 01:29:02;;;;;;;35.83;23.85;;;0.00;99.90;;;;;;5095137;28;20104;-75
2024/01/20 01:31:28;;;;;;;35.70;25.40;;;0.00;99.90;;;;;;5095171;28;20531;-75
2024/01/20 01:33:54;;;;;;;33.85;23.73;;;0.40;99.90;;;;;;5094908;28;20032;-75
2024/01/20 01:36:20;;;;;;;33.75;23.20;;;0.00;99.90;;;;;;5078110;28;20136;-74
2024/01/20 01:38:45;;;;;;;34.40;24.58;;;0.00;99.90;;;;;;5078467;28;20043;-75
2024/01/20 01:41:11;;;;;;;34.55;23.45;;;0.00;99.90;;;;;;5094992;28;20047;-75
2024/01/20 01:43:37;;;;;;;34.70;25.33;;;0.00;99.90;;;;;;5078021;28;20035;-74
2024/01/20 01:46:03;;;;;;;33.00;25.08;;;0.00;99.90;;;;;;5077974;28;20069;-75
2024/01/20 01:48:29;;;;;;;28.63;16.95;;;0.00;99.90;;;;;;5094684;28;20047;-75
2024/01/20 01:50:56;;;;;;;35.75;25.00;;;-0.10;99.90;;;;;;5078196;28;20126;-74
2024/01/20 01:53:22;;;;;;;39.65;28.05;;;-0.10;99.90;;;;;;5061703;28;20028;-74
2024/01/20 01:55:48;;;;;;;30.48;22.83;;;-0.10;99.90;;;;;;5061254;28;20454;-74
2024/01/20 01:58:14;;;;;;;39.00;26.20;;;-0.10;99.90;;;;;;5065193;28;20479;-74
2024/01/20 02:00:41;;;;;;;36.13;26.23;;;-0.10;99.90;;;;;;5081456;28;20130;-75
2024/01/20 02:03:08;;;;;;;37.67;26.10;;;-0.20;99.90;;;;;;5081400;28;20078;-75
2024/01/20 02:05:34;;;;;;;37.13;24.67;;;-0.20;99.90;;;;;;5081629;28;20053;-74
2024/01/20 02:08:00;;;;;;;37.80;27.23;;;-0.20;99.90;;;;;;5115175;28;20043;-75
2024/01/20 02:10:25;;;;;;;37.42;28.63;;;-0.20;99.90;;;;;;5098001;28;20032;-74
2024/01/20 02:12:52;;;;;;;39.78;29.75;;;-0.20;99.90;;;;;;5098384;28;20046;-74
2024/01/20 02:15:18;;;;;;;33.78;22.45;;;-0.30;99.90;;;;;;5115348;28;20031;-75
2024/01/20 02:17:54;;;;;;;39.05;28.98;;;-0.20;99.90;;;;;;5081532;28;20035;-75
2024/01/20 02:20:20;;;;;;;37.38;27.35;;;-0.20;99.90;;;;;;5082116;28;20050;-74
2024/01/20 02:22:46;;;;;;;39.83;27.92;;;-0.20;99.90;;;;;;5098036;28;20051;-75
2024/01/20 02:25:12;;;;;;;42.00;28.58;;;-0.20;99.90;;;;;;5097966;28;20495;-74
2024/01/20 02:27:38;;;;;;;39.65;26.85;;;-0.20;99.90;;;;;;5098388;28;20242;-74
2024/01/20 02:30:04;;;;;;;36.38;27.98;;;-0.20;99.90;;;;;;5097962;28;20031;-75
2024/01/20 02:32:30;;;;;;;35.55;26.23;;;-0.30;99.90;;;;;;5098163;28;20476;-75
2024/01/20 02:34:56;;;;;;;39.25;29.38;;;-0.20;99.90;;;;;;5097852;28;20054;-75
2024/01/20 02:37:22;;;;;;;37.15;27.25;;;-0.20;99.90;;;;;;5114734;28;20079;-75
2024/01/20 02:39:48;;;;;;;44.70;29.95;;;-0.20;99.90;;;;;;5098184;28;20039;-75
2024/01/20 02:42:14;;;;;;;40.85;30.13;;;-0.20;99.90;;;;;;5114602;28;20092;-74
2024/01/20 02:44:40;;;;;;;41.33;30.45;;;-0.20;99.90;;;;;;5098106;28;20047;-74
2024/01/20 02:47:06;;;;;;;43.08;30.02;;;-0.20;99.90;;;;;;5080686;28;20047;-75
2024/01/20 02:49:32;;;;;;;40.22;30.65;;;-0.30;99.90;;;;;;5114885;28;20057;-75
2024/01/20 02:51:58;;;;;;;41.22;30.05;;;-0.30;99.90;;;;;;5114969;28;20446;-75
2024/01/20 02:54:24;;;;;;;42.40;30.45;;;-0.30;99.90;;;;;;5110780;27;20031;-75
2024/01/20 02:56:49;;;;;;;42.25;31.02;;;-0.30;99.90;;;;;;5098383;28;20118;-75
2024/01/20 02:59:15;;;;;;;42.33;29.40;;;-0.30;99.90;;;;;;5097930;28;20036;-75
2024/01/20 03:01:41;;;;;;;41.85;31.40;;;-0.20;99.90;;;;;;5081328;28;20027;-74
2024/01/20 03:04:06;;;;;;;41.70;31.25;;;-0.40;99.90;;;;;;5097920;28;20054;-75
2024/01/20 03:06:32;;;;;;;43.40;32.00;;;-0.40;99.90;;;;;;5080849;28;20039;-74
2024/01/20 03:08:58;;;;;;;43.53;32.08;;;-0.30;99.90;;;;;;5080933;28;20058;-75
2024/01/20 03:11:24;;;;;;;45.03;31.50;;;-0.40;99.90;;;;;;5080796;28;20184;-75
2024/01/20 03:13:50;;;;;;;43.88;33.17;;;-0.40;99.90;;;;;;5080979;28;20036;-75
2024/01/20 03:16:16;;;;;;;44.58;32.63;;;-0.40;99.90;;;;;;5080650;28;20081;-74
2024/01/20 03:18:42;;;;;;;45.85;32.78;;;-0.50;99.90;;;;;;5080963;28;20039;-74
2024/01/20 03:21:08;;;;;;;46.95;32.90;;;-0.50;99.90;;;;;;5080874;28;20031;-74
2024/01/20 03:23:34;;;;;;;46.03;30.83;;;-0.50;99.90;;;;;;5080606;28;20109;-74
2024/01/20 03:26:07;;;;;;;48.28;32.95;;;-0.50;99.90;;;;;;5097623;28;20527;-74
2024/01/20 03:28:34;;;;;;;44.40;30.55;;;-0.50;99.90;;;;;;5063961;28;20480;-74
2024/01/20 03:31:00;;;;;;;45.30;31.90;;;-0.60;99.90;;;;;;5097743;28;20044;-74
2024/01/20 03:33:26;;;;;;;47.35;32.58;;;-0.50;99.90;;;;;;5063725;28;20073;-74
2024/01/20 03:35:52;;;;;;;45.17;31.40;;;-0.60;99.90;;;;;;5097351;28;20040;-73
2024/01/20 03:38:18;;;;;;;45.17;32.58;;;-0.60;99.90;;;;;;5097065;28;20096;-74
2024/01/20 03:40:44;;;;;;;46.25;30.52;;;-0.60;99.90;;;;;;5047252;28;20039;-74
2024/01/20 03:43:10;;;;;;;47.22;32.22;;;-0.60;99.90;;;;;;5080500;28;20472;-74
2024/01/20 03:45:39;;;;;;;46.13;33.80;;;-0.60;99.90;;;;;;5097061;28;20483;-73
2024/01/20 03:48:05;;;;;;;47.25;33.40;;;-0.70;99.90;;;;;;5074289;28;20051;-74
2024/01/20 03:50:31;;;;;;;49.67;32.75;;;-0.70;99.90;;;;;;5076514;28;20044;-74
2024/01/20 03:52:56;;;;;;;49.25;32.47;;;-0.70;99.90;;;;;;5061266;28;20088;-74
2024/01/20 03:55:22;;;;;;;47.13;32.55;;;-0.70;99.90;;;;;;5093280;28;20070;-74
2024/01/20 03:57:48;;;;;;;49.00;33.03;;;-0.70;99.90;;;;;;5076574;28;20044;-74
2024/01/20 04:00:14;;;;;;;49.15;32.70;;;-0.70;99.90;;;;;;5059814;28;20488;-74
2024/01/20 04:02:40;;;;;;;51.40;34.30;;;-0.70;99.90;;;;;;5076538;28;20102;-74
2024/01/20 04:05:06;;;;;;;46.22;33.17;;;-0.70;99.90;;;;;;5076347;28;20089;-74
2024/01/20 04:07:32;;;;;;;51.75;33.70;;;-0.70;99.90;;;;;;5093090;28;20082;-74
2024/01/20 04:09:57;;;;;;;54.00;34.42;;;-0.70;99.90;;;;;;5076342;28;20072;-74
2024/01/20 04:12:24;;;;;;;55.97;33.67;;;-0.70;99.90;;;;;;5076228;28;20470;-74
2024/01/20 04:14:50;;;;;;;52.80;34.13;;;-0.70;99.90;;;;;;5076244;28;20043;-74
2024/01/20 04:17:16;;;;;;;53.35;34.38;;;-0.70;99.90;;;;;;5092884;28;20044;-74
2024/01/20 04:19:41;;;;;;;56.40;35.10;;;-0.70;99.90;;;;;;5076400;28;20055;-74
2024/01/20 04:22:07;;;;;;;56.17;33.55;;;-0.60;99.90;;;;;;5092862;28;20123;-74
2024/01/20 04:24:33;;;;;;;55.13;32.60;;;-0.60;99.90;;;;;;5093210;28;20123;-74
2024/01/20 04:26:59;;;;;;;58.42;35.85;;;-0.50;99.90;;;;;;5092937;28;20481;-74
2024/01/20 04:29:24;;;;;;;61.15;36.90;;;-0.40;99.90;;;;;;5059376;28;20032;-73
2024/01/20 04:31:50;;;;;;;54.72;34.33;;;-0.50;99.90;;;;;;5092527;28;20108;-74
2024/01/20 04:34:16;;;;;;;58.03;35.22;;;-0.50;99.90;;;;;;5075883;28;20485;-74
2024/01/20 04:36:42;;;;;;;56.45;34.45;;;-0.50;99.90;;;;;;5075836;28;20075;-74
2024/01/20 04:39:07;;;;;;;57.45;33.25;;;-0.50;99.90;;;;;;5092580;28;20048;-74
2024/01/20 04:41:33;;;;;;;60.72;34.47;;;-0.50;99.90;;;;;;5092607;28;20513;-74
2024/01/20 04:43:59;;;;;;;56.70;33.05;;;-0.60;99.90;;;;;;5058980;28;20044;-74
2024/01/20 04:46:24;;;;;;;59.08;34.25;;;-0.60;99.90;;;;;;5043032;28;20400;-74
2024/01/20 04:48:50;;;;;;;59.65;33.53;;;-0.60;99.90;;;;;;5095253;28;20048;-74
2024/01/20 04:51:16;;;;;;;55.63;31.65;;;-0.60;99.90;;;;;;5075807;28;20036;-74
2024/01/20 04:53:42;;;;;;;51.50;29.17;;;-0.60;99.90;;;;;;5075521;28;20125;-74
2024/01/20 04:56:07;;;;;;;60.20;36.00;;;-0.70;99.90;;;;;;5092362;28;20063;-73
2024/01/20 04:58:33;;;;;;;62.45;35.17;;;-0.70;99.90;;;;;;5092546;28;20039;-74
2024/01/20 05:00:59;;;;;;;69.55;36.05;;;-0.80;99.90;;;;;;5075502;28;20042;-74
2024/01/20 05:03:25;;;;;;;57.92;34.40;;;-0.80;99.90;;;;;;5075440;28;20044;-74
2024/01/20 05:05:51;;;;;;;61.78;36.03;;;-0.80;99.90;;;;;;5058837;28;20480;-74
2024/01/20 05:08:16;;;;;;;57.58;32.63;;;-0.80;99.90;;;;;;5058458;28;20048;-75
2024/01/20 05:10:42;;;;;;;63.80;34.22;;;-0.80;99.90;;;;;;5091881;28;20040;-74
2024/01/20 05:13:08;;;;;;;66.72;33.78;;;-0.80;99.90;;;;;;5075436;28;20428;-74
2024/01/20 05:15:34;;;;;;;59.88;34.83;;;-0.90;99.90;;;;;;5092054;28;20122;-74
2024/01/20 05:18:00;;;;;;;61.67;32.50;;;-0.90;99.90;;;;;;5057918;28;20086;-74
2024/01/20 05:20:25;;;;;;;67.40;36.55;;;-0.90;99.90;;;;;;5058680;28;20154;-74
2024/01/20 05:22:51;;;;;;;67.35;34.42;;;-0.90;99.90;;;;;;5091708;28;20073;-74
2024/01/20 05:25:17;;;;;;;64.40;34.92;;;-0.90;99.90;;;;;;5058370;28;20040;-74
2024/01/20 05:27:43;;;;;;;64.88;34.58;;;-0.90;99.90;;;;;;5091934;28;20075;-74
2024/01/20 05:30:09;;;;;;;54.17;29.75;;;-0.90;99.90;;;;;;5091622;28;20036;-74
2024/01/20 05:32:40;;;;;;;63.17;35.60;;;-0.90;99.90;;;;;;5058434;28;20036;-74
2024/01/20 05:35:06;;;;;;;62.08;33.80;;;-0.90;99.90;;;;;;5074756;28;20039;-74
2024/01/20 05:37:32;;;;;;;64.85;35.17;;;-1.00;99.90;;;;;;5058077;28;20044;-74
2024/01/20 05:39:57;;;;;;;59.72;31.88;;;-1.00;99.90;;;;;;5074960;28;20043;-74
2024/01/20 05:42:23;;;;;;;62.00;31.45;;;-0.90;99.90;;;;;;5058095;28;20047;-74
2024/01/20 05:44:49;;;;;;;63.38;34.90;;;-1.00;99.90;;;;;;5087797;28;20042;-74
2024/01/20 05:47:15;;;;;;;64.78;35.15;;;-0.90;99.90;;;;;;5079505;27;20046;-74
2024/01/20 05:49:41;;;;;;;60.13;29.80;;;-1.00;99.90;;;;;;5115166;28;20051;-74
2024/01/20 05:52:06;;;;;;;73.03;37.22;;;-1.10;99.90;;;;;;5098459;28;20085;-74
2024/01/20 05:54:32;;;;;;;65.45;34.20;;;-1.10;99.90;;;;;;5098130;28;20075;-73
2024/01/20 05:56:58;;;;;;;62.75;33.38;;;-1.10;99.90;;;;;;5081644;28;20390;-74
2024/01/20 05:59:24;;;;;;;65.03;34.97;;;-1.10;99.90;;;;;;5098380;28;20035;-74
2024/01/20 06:01:52;;;;;;;61.65;34.97;;;-1.00;99.90;;;;;;5098138;28;20039;-74
2024/01/20 06:04:19;;;;;;;63.40;33.53;;;-1.00;99.90;;;;;;5082159;28;20498;-74
2024/01/20 06:06:48;;;;;;;65.78;34.75;;;-1.10;99.90;;;;;;5115108;28;20040;-74
2024/01/20 06:09:15;;;;;;;64.97;33.83;;;-1.10;99.90;;;;;;5098086;28;20035;-74
2024/01/20 06:11:41;;;;;;;64.18;34.85;;;-1.10;99.90;;;;;;5098247;28;20130;-74
2024/01/20 06:14:07;;;;;;;58.92;29.95;;;-1.00;99.90;;;;;;5098029;28;20069;-74
2024/01/20 06:16:36;;;;;;;68.72;34.65;;;-1.00;99.90;;;;;;5081576;28;20073;-73
2024/01/20 06:19:02;;;;;;;60.63;32.83;;;-1.10;99.90;;;;;;5114942;28;20043;-74
2024/01/20 06:21:28;;;;;;;65.20;34.60;;;-1.10;99.90;;;;;;5114841;28;20092;-74
2024/01/20 06:23:53;;;;;;;49.08;26.08;;;-1.10;99.90;;;;;;5114803;28;20399;-74
2024/01/20 06:26:20;;;;;;;43.13;22.77;;;-1.10;99.90;;;;;;5098363;28;20039;-74
2024/01/20 06:28:45;;;;;;;59.13;31.75;;;-1.00;99.90;;;;;;5097981;27;20034;-73
2024/01/20 06:31:27;;;;;;;56.85;30.75;;;-1.00;99.90;;;;;;5084276;27;20039;-74
2024/01/20 06:33:54;;;;;;;58.20;32.58;;;-1.00;99.90;;;;;;5101801;27;20073;-74
2024/01/20 06:36:26;;;;;;;56.33;30.90;;;-0.90;99.90;;;;;;5118982;27;20114;-74
2024/01/20 06:38:55;;;;;;;57.38;30.58;;;-0.70;99.90;;;;;;5118546;27;20532;-74
2024/01/20 06:41:21;;;;;;;58.88;32.72;;;-0.90;99.90;;;;;;5113977;27;20050;-73
2024/01/20 06:43:46;;;;;;;49.63;25.35;;;-0.90;99.90;;;;;;5101559;27;20047;-74
2024/01/20 06:46:12;;;;;;;58.92;30.67;;;-0.90;99.90;;;;;;5118508;27;20050;-74
2024/01/20 06:48:38;;;;;;;58.33;32.17;;;-0.80;99.90;;;;;;5084542;27;20083;-74
2024/01/20 06:51:04;;;;;;;55.88;30.85;;;-0.90;99.90;;;;;;5118312;27;20047;-74
2024/01/20 06:53:31;;;;;;;57.63;30.85;;;-0.90;99.90;;;;;;5118395;27;20058;-73
2024/01/20 06:55:57;;;;;;;57.65;31.20;;;-0.90;99.90;;;;;;5118373;27;20039;-73
2024/01/20 06:58:24;;;;;;;60.30;30.90;;;-1.00;99.90;;;;;;5101731;27;20480;-74
2024/01/20 07:00:50;;;;;;;59.22;30.75;;;-1.00;99.90;;;;;;5118393;27;20148;-74
2024/01/20 07:03:17;;;;;;;52.72;28.85;;;-1.00;99.90;;;;;;5118553;27;20521;-74
2024/01/20 07:05:43;;;;;;;52.10;27.20;;;-0.90;99.90;;;;;;5101491;27;20518;-74
2024/01/20 07:08:09;;;;;;;54.88;29.80;;;-1.00;99.90;;;;;;5101115;27;20043;-75
2024/01/20 07:10:35;;;;;;;60.30;31.58;;;-1.00;99.90;;;;;;5117974;27;20043;-74
2024/01/20 07:13:01;;;;;;;58.10;30.77;;;-1.00;99.90;;;;;;5101202;27;20091;-74
2024/01/20 07:15:26;;;;;;;53.30;28.45;;;-1.00;99.90;;;;;;5084159;27;20126;-74
2024/01/20 07:17:58;;;;;;;57.13;28.17;;;-1.10;99.90;;;;;;5084055;27;20073;-74
2024/01/20 07:20:25;;;;;;;58.58;29.77;;;-1.00;99.90;;;;;;5100942;27;20047;-74
2024/01/20 07:22:51;;;;;;;54.28;28.77;;;-1.10;99.90;;;;;;5118024;27;20399;-74
2024/01/20 07:25:17;;;;;;;55.63;29.83;;;-1.10;99.90;;;;;;5100704;27;20046;-74
2024/01/20 07:27:44;;;;;;;62.20;31.20;;;-1.20;99.90;;;;;;5117737;27;20054;-74
2024/01/20 07:30:10;;;;;;;57.75;29.95;;;-1.10;99.90;;;;;;5117717;27;20093;-74
2024/01/20 07:32:40;;;;;;;53.60;26.67;;;-1.10;99.90;;;;;;5084049;27;20046;-75
2024/01/20 07:35:09;;;;;;;55.22;29.55;;;-1.10;99.90;;;;;;5100578;27;20039;-74
2024/01/20 07:37:36;;;;;;;54.08;26.17;;;-1.10;99.90;;;;;;5114026;27;20119;-74
2024/01/20 07:40:04;;;;;;;56.40;29.90;;;-1.10;99.90;;;;;;5100928;27;20039;-75
2024/01/20 07:42:32;;;;;;;56.65;30.10;;;-1.10;99.90;;;;;;5100425;27;20039;-74
2024/01/20 07:44:59;;;;;;;54.40;29.52;;;-1.10;99.90;;;;;;5117425;27;20137;-74
2024/01/20 07:47:25;;;;;;;54.92;28.98;;;-1.10;99.90;;;;;;5100114;27;20047;-75
2024/01/20 07:49:51;;;;;;;53.78;27.50;;;-1.00;99.90;;;;;;5100553;27;20317;-74
2024/01/20 07:52:16;;;;;;;56.90;29.20;;;-1.00;99.90;;;;;;5100564;27;20054;-75
2024/01/20 07:54:44;;;;;;;53.88;27.15;;;-1.00;99.90;;;;;;5100482;27;20039;-74
2024/01/20 07:57:10;;;;;;;58.30;29.75;;;-0.90;99.90;;;;;;5100093;27;20041;-74
2024/01/20 07:59:35;;;;;;;58.58;29.38;;;-0.70;99.90;;;;;;5100310;27;20039;-74
2024/01/20 08:02:01;;;;;;;57.85;29.58;;;-0.80;99.90;;;;;;5100107;27;20053;-74
2024/01/20 08:04:27;;;;;;;56.67;29.88;;;-0.70;99.90;;;;;;5083307;27;20491;-74
2024/01/20 08:06:53;;;;;;;54.15;29.90;;;-0.60;99.90;;;;;;5117147;27;20510;-74
2024/01/20 08:09:19;;;;;;;59.20;29.75;;;-0.50;99.90;;;;;;5066754;27;20039;-74
2024/01/20 08:11:45;;;;;;;57.38;29.13;;;-0.50;99.90;;;;;;5116908;27;20091;-73
2024/01/20 08:14:11;;;;;;;55.38;29.48;;;-0.50;99.90;;;;;;5099752;27;20043;-74
2024/01/20 08:16:37;;;;;;;56.55;29.65;;;-0.40;99.90;;;;;;5117109;27;20089;-74
2024/01/20 08:19:03;;;;;;;54.35;29.98;;;-0.30;99.90;;;;;;5099718;27;20138;-74
2024/01/20 08:21:29;;;;;;;53.45;29.70;;;-0.30;99.90;;;;;;5099950;27;20046;-74
2024/01/20 08:23:55;;;;;;;52.80;28.13;;;-0.20;99.90;;;;;;5066408;27;20043;-74
2024/01/20 08:26:21;;;;;;;51.85;27.35;;;-0.10;99.90;;;;;;5099427;27;20126;-74
2024/01/20 08:28:46;;;;;;;50.35;27.20;;;-0.10;99.90;;;;;;5116580;27;20042;-74
2024/01/20 08:31:12;;;;;;;48.88;28.77;;;0.00;99.90;;;;;;5099506;27;20039;-74
2024/01/20 08:33:42;;;;;;;50.15;28.50;;;0.10;99.90;;;;;;5128872;27;20039;-74
2024/01/20 08:36:08;;;;;;;51.47;28.08;;;0.20;99.90;;;;;;5066178;27;20035;-74
2024/01/20 08:38:33;;;;;;;49.47;28.17;;;0.20;99.90;;;;;;5099472;27;20095;-74
2024/01/20 08:40:59;;;;;;;52.72;28.15;;;0.20;99.90;;;;;;5116650;27;20493;-74
2024/01/20 08:43:25;;;;;;;50.75;27.40;;;0.30;99.90;;;;;;5099529;27;20031;-74
2024/01/20 08:45:51;;;;;;;48.05;28.00;;;0.60;99.90;;;;;;5066111;27;20038;-74
2024/01/20 08:48:17;;;;;;;45.58;26.25;;;0.50;99.90;;;;;;5095586;28;20056;-73
2024/01/20 08:50:42;;;;;;;45.53;25.73;;;0.50;99.90;;;;;;5112855;28;20404;-74
2024/01/20 08:53:09;;;;;;;47.60;27.42;;;0.50;99.90;;;;;;5113190;28;20514;-73
2024/01/20 08:55:35;;;;;;;47.67;27.70;;;0.60;99.90;;;;;;5078883;28;20042;-74
2024/01/20 08:58:01;;;;;;;45.88;27.48;;;0.60;99.90;;;;;;5096089;28;20039;-74
2024/01/20 09:00:28;;;;;;;46.20;25.67;;;0.60;99.90;;;;;;5112613;28;20051;-74
2024/01/20 09:02:56;;;;;;;47.58;26.58;;;0.70;99.90;;;;;;5096260;28;20046;-74
2024/01/20 09:05:22;;;;;;;45.75;26.17;;;0.80;99.90;;;;;;5112503;28;20035;-73
2024/01/20 09:07:48;;;;;;;45.58;25.38;;;0.90;99.90;;;;;;5112414;28;20521;-74
2024/01/20 09:10:14;;;;;;;43.95;24.95;;;0.90;99.90;;;;;;5095676;28;20043;-74
2024/01/20 09:12:40;;;;;;;43.45;25.35;;;1.00;99.90;;;;;;5095351;28;20035;-74
2024/01/20 09:15:06;;;;;;;44.03;25.95;;;1.00;99.90;;;;;;5061865;28;20038;-74
2024/01/20 09:17:32;;;;;;;45.85;26.48;;;1.00;99.90;;;;;;5095380;28;20088;-74
2024/01/20 09:19:57;;;;;;;41.20;23.73;;;0.90;99.90;;;;;;5078721;28;20442;-74
2024/01/20 09:22:23;;;;;;;43.47;25.55;;;0.90;99.90;;;;;;5112317;28;20127;-74
2024/01/20 09:24:49;;;;;;;45.40;26.23;;;0.90;99.90;;;;;;5111183;28;20052;-74
2024/01/20 09:27:16;;;;;;;44.10;25.52;;;0.90;99.90;;;;;;5111950;28;20040;-74
2024/01/20 09:29:42;;;;;;;45.63;26.52;;;0.90;99.90;;;;;;5064614;28;20077;-74
2024/01/20 09:32:08;;;;;;;42.75;25.58;;;0.90;99.90;;;;;;5091573;28;20124;-74
2024/01/20 09:34:34;;;;;;;44.65;25.88;;;0.90;99.90;;;;;;5074847;28;20040;-73
2024/01/20 09:37:00;;;;;;;42.30;24.90;;;0.90;99.90;;;;;;5074985;28;20395;-74
2024/01/20 09:39:26;;;;;;;40.60;20.98;;;0.90;99.90;;;;;;5058152;28;20047;-74
2024/01/20 09:41:52;;;;;;;40.83;22.83;;;1.20;99.90;;;;;;5058402;28;20050;-73
2024/01/20 09:44:18;;;;;;;43.05;24.45;;;1.10;99.90;;;;;;5074868;28;20123;-74
2024/01/20 09:46:44;;;;;;;41.28;24.10;;;1.10;99.90;;;;;;5091726;28;20125;-73
2024/01/20 09:49:10;;;;;;;41.03;23.80;;;1.10;99.90;;;;;;5041276;28;20062;-73
2024/01/20 09:51:45;;;;;;;42.17;24.75;;;1.20;99.90;;;;;;5057898;28;20040;-73
2024/01/20 09:54:13;;;;;;;39.58;23.05;;;1.20;99.90;;;;;;5091408;28;20044;-73
2024/01/20 09:56:39;;;;;;;40.55;22.67;;;1.30;99.90;;;;;;5074534;28;20404;-73
2024/01/20 09:59:08;;;;;;;42.17;24.23;;;1.40;99.90;;;;;;5091281;28;20039;-73
2024/01/20 10:01:34;;;;;;;40.97;22.33;;;1.50;99.90;;;;;;5091595;28;20075;-73
2024/01/20 10:04:03;;;;;;;40.30;22.48;;;1.60;99.90;;;;;;5076280;28;20502;-73
2024/01/20 10:06:29;;;;;;;41.25;23.67;;;1.70;99.90;;;;;;5078658;28;20042;-73
2024/01/20 10:08:55;;;;;;;39.38;23.55;;;1.80;99.90;;;;;;5078598;28;20032;-73
2024/01/20 10:11:21;;;;;;;39.08;22.35;;;1.90;99.90;;;;;;5062248;28;20092;-73
2024/01/20 10:13:47;;;;;;;37.30;22.75;;;2.00;99.90;;;;;;5078396;28;20092;-73
2024/01/20 10:16:13;;;;;;;35.60;21.42;;;2.10;99.90;;;;;;5095328;28;20036;-73
2024/01/20 10:18:39;;;;;;;35.20;22.45;;;2.20;99.90;;;;;;5045212;28;20063;-73
2024/01/20 10:21:06;;;;;;;34.75;20.83;;;2.20;99.90;;;;;;5095222;28;20078;-73
2024/01/20 10:23:38;;;;;;;33.65;20.13;;;2.20;99.90;;;;;;5095305;28;20044;-73
2024/01/20 10:26:06;;;;;;;27.77;15.10;;;2.20;99.90;;;;;;5108092;28;20040;-73
2024/01/20 10:28:32;;;;;;;32.65;18.92;;;2.20;99.90;;;;;;5115423;28;20070;-73
2024/01/20 10:31:05;;;;;;;32.95;19.55;;;2.20;99.90;;;;;;5115757;28;20039;-78
2024/01/20 10:33:30;;;;;;;;;;;2.10;99.90;;;;;;5100187;28;20070;-77
2024/01/20 10:35:59;;;;;;;30.95;19.02;;;2.10;99.90;;;;;;5115403;28;19993;-77
2024/01/20 10:38:29;;;;;;;33.20;19.50;;;2.10;99.90;;;;;;5115429;28;20044;-76
2024/01/20 10:40:57;;;;;;;33.92;20.05;;;2.10;99.90;;;;;;5098347;28;20036;-76
2024/01/20 10:43:26;;;;;;;34.97;19.45;;;2.10;99.90;;;;;;5098711;28;20044;-75
2024/01/20 10:46:00;;;;;;;35.03;20.45;;;2.10;99.90;;;;;;5115436;28;20047;-76
2024/01/20 10:48:30;;;;;;;31.40;18.58;;;2.10;99.90;;;;;;5098126;28;20531;-75
2024/01/20 10:50:58;;;;;;;31.05;19.13;;;2.20;99.90;;;;;;5115196;28;20127;-75
2024/01/20 10:53:27;;;;;;;29.38;17.95;;;2.20;99.90;;;;;;5098525;28;20369;-75
2024/01/20 10:55:54;;;;;;;31.48;17.55;;;2.20;99.90;;;;;;5115301;28;20437;-75
2024/01/20 10:58:27;;;;;;;29.25;18.02;;;2.30;99.90;;;;;;5098147;28;20039;-75
2024/01/20 11:00:54;;;;;;;26.45;16.08;;;2.30;99.90;;;;;;5098239;28;20399;-75
2024/01/20 11:03:20;;;;;;;28.55;18.00;;;2.30;99.90;;;;;;5115024;28;20079;-76
2024/01/20 11:05:47;;;;;;;32.55;18.75;;;2.30;99.90;;;;;;5081538;28;20086;-76
2024/01/20 11:08:13;;;;;;;31.73;17.90;;;2.30;99.90;;;;;;5098060;28;20100;-76
2024/01/20 11:10:45;;;;;;;34.63;18.95;;;2.30;99.90;;;;;;5114828;28;20040;-75
2024/01/20 11:13:13;;;;;;;29.70;18.58;;;2.30;99.90;;;;;;5114746;28;20090;-76
2024/01/20 11:15:40;;;;;;;32.25;17.73;;;2.20;99.90;;;;;;5114019;28;20039;-76
2024/01/20 11:18:20;;;;;;;30.83;17.77;;;2.20;99.90;;;;;;5098013;28;20407;-75
2024/01/20 11:21:02;;;;;;;31.08;17.98;;;2.30;99.90;;;;;;5091974;28;20409;-75
2024/01/20 11:23:29;;;;;;;28.55;18.00;;;2.30;99.90;;;;;;5097562;28;20036;-75
2024/01/20 11:25:55;;;;;;;34.38;19.65;;;2.20;99.90;;;;;;5114380;28;20040;-76
2024/01/20 11:28:33;;;;;;;31.98;18.67;;;2.30;99.90;;;;;;5114588;28;20104;-75
2024/01/20 11:30:59;;;;;;;29.38;17.65;;;2.30;99.90;;;;;;5097261;28;20100;-76
2024/01/20 11:33:26;;;;;;;26.02;13.63;;;2.30;99.90;;;;;;5114653;28;20444;-76
2024/01/20 11:35:53;;;;;;;30.25;17.80;;;2.40;99.90;;;;;;5097358;28;20411;-75
2024/01/20 11:38:19;;;;;;;32.22;18.08;;;2.40;99.90;;;;;;5114589;28;20392;-76
2024/01/20 11:40:45;;;;;;;27.30;15.20;;;2.30;99.90;;;;;;5097413;28;20043;-73
2024/01/20 11:43:13;;;;;;;32.30;17.73;;;2.60;99.90;;;;;;5080226;28;20044;-73
2024/01/20 11:45:40;;;;;;;29.15;16.15;;;2.40;99.90;;;;;;5114142;28;20046;-73
2024/01/20 11:48:07;;;;;;;32.00;18.17;;;2.30;99.90;;;;;;5114006;28;20591;-73
2024/01/20 11:50:33;;;;;;;31.02;17.00;;;2.30;99.90;;;;;;5038278;28;20087;-73
2024/01/20 11:53:00;;;;;;;28.80;15.50;;;2.30;99.90;;;;;;5065830;28;20040;-72
2024/01/20 11:55:26;;;;;;;29.02;16.33;;;2.30;99.90;;;;;;5093461;28;20050;-73
2024/01/20 11:57:54;;;;;;;30.15;18.23;;;2.30;99.90;;;;;;5076855;28;20077;-72
2024/01/20 12:00:21;;;;;;;29.83;18.80;;;2.30;99.90;;;;;;5093296;28;20047;-72
2024/01/20 12:02:47;;;;;;;33.60;18.48;;;2.30;99.90;;;;;;5076756;28;20080;-73
2024/01/20 12:05:15;;;;;;;31.85;18.90;;;2.30;99.90;;;;;;5093226;28;20047;-73
2024/01/20 12:07:40;;;;;;;29.02;16.92;;;2.30;99.90;;;;;;5076709;28;20488;-73
2024/01/20 12:10:07;;;;;;;26.73;15.18;;;2.30;99.90;;;;;;5076648;28;20075;-74
2024/01/20 12:12:33;;;;;;;29.88;16.63;;;2.30;99.90;;;;;;5076360;28;20040;-72
2024/01/20 12:14:58;;;;;;;26.75;15.98;;;2.30;99.90;;;;;;5076649;28;20077;-72
2024/01/20 12:17:26;;;;;;;30.83;18.23;;;2.30;99.90;;;;;;5088692;28;20032;-72
2024/01/20 12:19:52;;;;;;;31.48;19.05;;;2.30;99.90;;;;;;5088687;28;20086;-72
2024/01/20 12:22:18;;;;;;;31.92;19.52;;;2.30;99.90;;;;;;5072998;28;20037;-72
2024/01/20 12:24:47;;;;;;;32.80;20.38;;;2.30;99.90;;;;;;5072655;28;20044;-72
2024/01/20 12:27:18;;;;;;;31.10;17.05;;;2.20;99.90;;;;;;5071503;28;20086;-73